sensor_id;sensor_type;location;lat;lon;timestamp;temperature;humidity
318;DHT22;146;53.448;10.228;2022-12-20T00:00:05;5.60;1.90
318;DHT22;146;53.448;10.228;2022-12-20T00:02:32;5.60;1.70
318;DHT22;146;53.448;10.228;2022-12-20T00:04:59;5.60;1.40
318;DHT22;146;53.448;10.228;2022-12-20T00:07:26;5.50;1.00
318;DHT22;146;53.448;10.228;2022-12-20T00:09:52;5.50;1.10
318;DHT22;146;53.448;10.228;2022-12-20T00:12:19;5.60;1.40
318;DHT22;146;53.448;10.228;2022-12-20T00:14:46;5.70;1.40
318;DHT22;146;53.448;10.228;2022-12-20T00:17:14;5.70;1.40
318;DHT22;146;53.448;10.228;2022-12-20T00:19:42;5.70;1.60
318;DHT22;146;53.448;10.228;2022-12-20T00:22:09;5.90;1.80
318;DHT22;146;53.448;10.228;2022-12-20T00:24:36;5.90;1.90
318;DHT22;146;53.448;10.228;2022-12-20T00:27:03;6.00;1.90
318;DHT22;146;53.448;10.228;2022-12-20T00:29:30;6.10;1.80
318;DHT22;146;53.448;10.228;2022-12-20T00:31:57;6.20;1.70
318;DHT22;146;53.448;10.228;2022-12-20T00:34:25;6.20;1.50
318;DHT22;146;53.448;10.228;2022-12-20T00:36:52;6.30;1.30
318;DHT22;146;53.448;10.228;2022-12-20T00:39:18;6.30;1.10
318;DHT22;146;53.448;10.228;2022-12-20T00:41:45;6.30;1.00
318;DHT22;146;53.448;10.228;2022-12-20T00:44:12;6.40;1.00
318;DHT22;146;53.448;10.228;2022-12-20T00:46:39;6.40;1.00
318;DHT22;146;53.448;10.228;2022-12-20T00:49:05;6.30;1.00
318;DHT22;146;53.448;10.228;2022-12-20T00:51:34;6.30;1.00
318;DHT22;146;53.448;10.228;2022-12-20T00:54:00;6.30;1.00
318;DHT22;146;53.448;10.228;2022-12-20T00:56:28;6.30;1.00
318;DHT22;146;53.448;10.228;2022-12-20T00:58:57;6.30;1.00
318;DHT22;146;53.448;10.228;2022-12-20T01:01:25;6.30;1.00
318;DHT22;146;53.448;10.228;2022-12-20T01:03:53;6.20;1.00
318;DHT22;146;53.448;10.228;2022-12-20T01:06:20;6.30;1.00
318;DHT22;146;53.448;10.228;2022-12-20T01:08:48;6.30;1.00
318;DHT22;146;53.448;10.228;2022-12-20T01:11:17;6.30;1.00
318;DHT22;146;53.448;10.228;2022-12-20T01:13:46;6.20;1.00
318;DHT22;146;53.448;10.228;2022-12-20T01:16:15;6.20;1.00
318;DHT22;146;53.448;10.228;2022-12-20T01:18:42;6.10;1.00
318;DHT22;146;53.448;10.228;2022-12-20T01:21:11;6.10;1.00
318;DHT22;146;53.448;10.228;2022-12-20T01:23:39;6.10;1.00
318;DHT22;146;53.448;10.228;2022-12-20T01:26:10;6.20;1.00
318;DHT22;146;53.448;10.228;2022-12-20T01:28:38;6.20;1.00
318;DHT22;146;53.448;10.228;2022-12-20T01:31:06;6.20;1.00
318;DHT22;146;53.448;10.228;2022-12-20T01:33:33;6.20;1.00
318;DHT22;146;53.448;10.228;2022-12-20T01:36:01;6.30;1.00
318;DHT22;146;53.448;10.228;2022-12-20T01:38:28;6.40;1.10
318;DHT22;146;53.448;10.228;2022-12-20T01:40:56;6.40;1.30
318;DHT22;146;53.448;10.228;2022-12-20T01:43:25;6.50;1.40
318;DHT22;146;53.448;10.228;2022-12-20T01:45:52;6.60;1.40
318;DHT22;146;53.448;10.228;2022-12-20T01:48:22;6.70;1.20
318;DHT22;146;53.448;10.228;2022-12-20T01:50:51;6.80;1.10
318;DHT22;146;53.448;10.228;2022-12-20T01:53:20;6.90;1.00
318;DHT22;146;53.448;10.228;2022-12-20T01:55:48;6.90;1.00
318;DHT22;146;53.448;10.228;2022-12-20T01:58:17;7.00;1.00
318;DHT22;146;53.448;10.228;2022-12-20T02:00:46;7.10;1.00
318;DHT22;146;53.448;10.228;2022-12-20T02:03:14;7.10;1.00
318;DHT22;146;53.448;10.228;2022-12-20T02:05:44;7.20;1.00
318;DHT22;146;53.448;10.228;2022-12-20T02:08:13;7.20;1.00
318;DHT22;146;53.448;10.228;2022-12-20T02:11:00;7.10;1.00
318;DHT22;146;53.448;10.228;2022-12-20T02:13:36;7.20;1.00
318;DHT22;146;53.448;10.228;2022-12-20T02:16:11;7.10;1.00
318;DHT22;146;53.448;10.228;2022-12-20T02:18:45;7.10;1.00
318;DHT22;146;53.448;10.228;2022-12-20T02:21:22;7.10;1.00
318;DHT22;146;53.448;10.228;2022-12-20T02:27:00;7.20;1.00
318;DHT22;146;53.448;10.228;2022-12-20T02:29:35;7.20;1.00
318;DHT22;146;53.448;10.228;2022-12-20T02:32:08;7.20;1.00
318;DHT22;146;53.448;10.228;2022-12-20T02:34:39;7.20;1.00
318;DHT22;146;53.448;10.228;2022-12-20T02:37:07;7.30;1.00
318;DHT22;146;53.448;10.228;2022-12-20T02:39:35;7.50;1.00
318;DHT22;146;53.448;10.228;2022-12-20T02:42:05;7.60;1.00
318;DHT22;146;53.448;10.228;2022-12-20T02:44:34;7.60;1.00
318;DHT22;146;53.448;10.228;2022-12-20T02:47:26;7.60;1.00
318;DHT22;146;53.448;10.228;2022-12-20T02:49:56;7.60;1.00
318;DHT22;146;53.448;10.228;2022-12-20T02:52:24;7.70;1.00
318;DHT22;146;53.448;10.228;2022-12-20T02:54:55;7.70;1.00
318;DHT22;146;53.448;10.228;2022-12-20T02:57:26;7.70;1.00
318;DHT22;146;53.448;10.228;2022-12-20T02:59:59;7.70;1.00
318;DHT22;146;53.448;10.228;2022-12-20T03:02:29;7.80;1.00
318;DHT22;146;53.448;10.228;2022-12-20T03:05:20;7.90;1.00
318;DHT22;146;53.448;10.228;2022-12-20T03:07:47;7.90;1.00
318;DHT22;146;53.448;10.228;2022-12-20T03:10:14;7.90;1.00
318;DHT22;146;53.448;10.228;2022-12-20T03:12:41;7.90;1.00
318;DHT22;146;53.448;10.228;2022-12-20T03:15:09;7.80;1.00
318;DHT22;146;53.448;10.228;2022-12-20T03:17:37;7.80;1.00
318;DHT22;146;53.448;10.228;2022-12-20T03:20:05;7.80;1.00
318;DHT22;146;53.448;10.228;2022-12-20T03:22:33;7.70;1.00
318;DHT22;146;53.448;10.228;2022-12-20T03:25:00;7.70;1.00
318;DHT22;146;53.448;10.228;2022-12-20T03:27:27;7.70;1.00
318;DHT22;146;53.448;10.228;2022-12-20T03:29:54;7.70;1.00
318;DHT22;146;53.448;10.228;2022-12-20T03:32:21;7.80;1.00
318;DHT22;146;53.448;10.228;2022-12-20T03:34:50;7.80;1.00
318;DHT22;146;53.448;10.228;2022-12-20T03:37:16;7.90;1.00
318;DHT22;146;53.448;10.228;2022-12-20T03:39:43;7.90;1.00
318;DHT22;146;53.448;10.228;2022-12-20T03:42:10;7.90;1.00
318;DHT22;146;53.448;10.228;2022-12-20T03:44:37;7.90;1.00
318;DHT22;146;53.448;10.228;2022-12-20T03:47:03;7.90;1.00
318;DHT22;146;53.448;10.228;2022-12-20T03:49:30;7.90;1.00
318;DHT22;146;53.448;10.228;2022-12-20T03:51:58;8.00;1.00
318;DHT22;146;53.448;10.228;2022-12-20T03:54:26;8.00;1.00
318;DHT22;146;53.448;10.228;2022-12-20T03:56:53;8.00;1.00
318;DHT22;146;53.448;10.228;2022-12-20T03:59:19;7.90;1.00
318;DHT22;146;53.448;10.228;2022-12-20T04:01:46;8.10;1.00
318;DHT22;146;53.448;10.228;2022-12-20T04:04:14;8.10;1.00
318;DHT22;146;53.448;10.228;2022-12-20T04:06:41;8.10;1.00
318;DHT22;146;53.448;10.228;2022-12-20T04:09:09;8.10;1.00
318;DHT22;146;53.448;10.228;2022-12-20T04:11:36;8.10;1.00
318;DHT22;146;53.448;10.228;2022-12-20T04:14:04;8.10;1.00
318;DHT22;146;53.448;10.228;2022-12-20T04:16:32;8.10;1.00
318;DHT22;146;53.448;10.228;2022-12-20T04:18:58;8.10;1.00
318;DHT22;146;53.448;10.228;2022-12-20T04:21:27;8.00;1.00
318;DHT22;146;53.448;10.228;2022-12-20T04:23:55;7.90;1.00
318;DHT22;146;53.448;10.228;2022-12-20T04:26:23;7.90;1.00
318;DHT22;146;53.448;10.228;2022-12-20T04:28:50;7.90;1.00
318;DHT22;146;53.448;10.228;2022-12-20T04:31:17;7.80;1.00
318;DHT22;146;53.448;10.228;2022-12-20T04:33:44;7.80;1.00
318;DHT22;146;53.448;10.228;2022-12-20T04:36:11;7.80;1.00
318;DHT22;146;53.448;10.228;2022-12-20T04:38:38;7.70;1.00
318;DHT22;146;53.448;10.228;2022-12-20T04:41:05;7.70;1.00
318;DHT22;146;53.448;10.228;2022-12-20T04:43:33;7.70;1.00
318;DHT22;146;53.448;10.228;2022-12-20T04:46:00;7.70;1.00
318;DHT22;146;53.448;10.228;2022-12-20T04:48:27;7.70;1.00
318;DHT22;146;53.448;10.228;2022-12-20T04:50:55;7.60;1.00
318;DHT22;146;53.448;10.228;2022-12-20T04:53:22;7.50;1.00
318;DHT22;146;53.448;10.228;2022-12-20T04:56:07;7.50;1.00
318;DHT22;146;53.448;10.228;2022-12-20T04:58:36;7.40;1.00
318;DHT22;146;53.448;10.228;2022-12-20T05:01:02;7.40;1.00
318;DHT22;146;53.448;10.228;2022-12-20T05:03:29;7.30;1.00
318;DHT22;146;53.448;10.228;2022-12-20T05:05:56;7.30;1.00
318;DHT22;146;53.448;10.228;2022-12-20T05:08:23;7.20;1.00
318;DHT22;146;53.448;10.228;2022-12-20T05:10:50;7.00;1.00
318;DHT22;146;53.448;10.228;2022-12-20T05:13:17;7.00;1.00
318;DHT22;146;53.448;10.228;2022-12-20T05:15:49;6.90;1.00
318;DHT22;146;53.448;10.228;2022-12-20T05:18:16;6.70;1.00
318;DHT22;146;53.448;10.228;2022-12-20T05:20:43;6.70;1.00
318;DHT22;146;53.448;10.228;2022-12-20T05:23:10;6.70;1.00
318;DHT22;146;53.448;10.228;2022-12-20T05:26:03;6.70;1.00
318;DHT22;146;53.448;10.228;2022-12-20T05:28:45;6.70;1.00
318;DHT22;146;53.448;10.228;2022-12-20T05:31:13;6.70;1.00
318;DHT22;146;53.448;10.228;2022-12-20T05:33:39;6.70;1.00
318;DHT22;146;53.448;10.228;2022-12-20T05:36:07;6.70;1.00
318;DHT22;146;53.448;10.228;2022-12-20T05:38:34;6.70;1.00
318;DHT22;146;53.448;10.228;2022-12-20T05:41:00;6.60;1.00
318;DHT22;146;53.448;10.228;2022-12-20T05:43:29;6.60;1.20
318;DHT22;146;53.448;10.228;2022-12-20T05:45:56;6.60;1.20
318;DHT22;146;53.448;10.228;2022-12-20T05:48:24;6.70;1.40
318;DHT22;146;53.448;10.228;2022-12-20T05:50:51;6.70;1.40
318;DHT22;146;53.448;10.228;2022-12-20T05:53:17;6.70;1.40
318;DHT22;146;53.448;10.228;2022-12-20T05:55:46;6.70;1.40
318;DHT22;146;53.448;10.228;2022-12-20T05:58:13;6.50;1.10
318;DHT22;146;53.448;10.228;2022-12-20T06:00:41;6.40;1.60
318;DHT22;146;53.448;10.228;2022-12-20T06:03:08;6.40;2.10
318;DHT22;146;53.448;10.228;2022-12-20T06:05:38;6.40;2.90
318;DHT22;146;53.448;10.228;2022-12-20T06:08:05;6.50;3.60
318;DHT22;146;53.448;10.228;2022-12-20T06:10:33;6.60;4.10
318;DHT22;146;53.448;10.228;2022-12-20T06:13:00;6.60;4.60
318;DHT22;146;53.448;10.228;2022-12-20T06:15:27;6.70;5.00
318;DHT22;146;53.448;10.228;2022-12-20T06:17:54;6.80;4.90
318;DHT22;146;53.448;10.228;2022-12-20T06:20:21;6.90;4.70
318;DHT22;146;53.448;10.228;2022-12-20T06:22:49;7.00;4.80
318;DHT22;146;53.448;10.228;2022-12-20T06:25:17;7.00;4.80
318;DHT22;146;53.448;10.228;2022-12-20T06:27:44;7.10;5.00
318;DHT22;146;53.448;10.228;2022-12-20T06:30:11;7.20;4.90
318;DHT22;146;53.448;10.228;2022-12-20T06:32:38;7.30;4.90
318;DHT22;146;53.448;10.228;2022-12-20T06:35:05;7.30;5.00
318;DHT22;146;53.448;10.228;2022-12-20T06:37:32;7.40;5.10
318;DHT22;146;53.448;10.228;2022-12-20T06:40:00;7.40;5.00
318;DHT22;146;53.448;10.228;2022-12-20T06:42:28;7.50;5.10
318;DHT22;146;53.448;10.228;2022-12-20T06:44:54;7.60;5.30
318;DHT22;146;53.448;10.228;2022-12-20T06:47:21;7.60;5.20
318;DHT22;146;53.448;10.228;2022-12-20T06:49:48;7.60;5.30
318;DHT22;146;53.448;10.228;2022-12-20T06:52:15;7.70;5.50
318;DHT22;146;53.448;10.228;2022-12-20T06:54:41;7.80;5.30
318;DHT22;146;53.448;10.228;2022-12-20T06:57:10;7.80;5.10
318;DHT22;146;53.448;10.228;2022-12-20T06:59:37;7.80;4.70
318;DHT22;146;53.448;10.228;2022-12-20T07:02:03;7.80;4.20
318;DHT22;146;53.448;10.228;2022-12-20T07:04:30;7.70;4.00
318;DHT22;146;53.448;10.228;2022-12-20T07:06:57;7.70;4.00
318;DHT22;146;53.448;10.228;2022-12-20T07:09:24;7.70;4.20
318;DHT22;146;53.448;10.228;2022-12-20T07:11:50;7.60;4.20
318;DHT22;146;53.448;10.228;2022-12-20T07:14:19;7.60;4.30
318;DHT22;146;53.448;10.228;2022-12-20T07:16:45;7.60;4.40
318;DHT22;146;53.448;10.228;2022-12-20T07:19:13;7.60;4.20
318;DHT22;146;53.448;10.228;2022-12-20T07:21:40;7.70;4.40
318;DHT22;146;53.448;10.228;2022-12-20T07:24:07;7.70;4.50
318;DHT22;146;53.448;10.228;2022-12-20T07:26:34;7.70;4.80
318;DHT22;146;53.448;10.228;2022-12-20T07:29:01;7.70;4.80
318;DHT22;146;53.448;10.228;2022-12-20T07:31:29;7.80;4.80
318;DHT22;146;53.448;10.228;2022-12-20T07:33:56;7.80;4.80
318;DHT22;146;53.448;10.228;2022-12-20T07:36:22;7.80;4.70
318;DHT22;146;53.448;10.228;2022-12-20T07:38:49;7.80;4.90
318;DHT22;146;53.448;10.228;2022-12-20T07:41:17;7.80;4.70
318;DHT22;146;53.448;10.228;2022-12-20T07:43:44;7.80;4.60
318;DHT22;146;53.448;10.228;2022-12-20T07:46:15;7.90;4.50
318;DHT22;146;53.448;10.228;2022-12-20T07:48:43;7.80;4.30
318;DHT22;146;53.448;10.228;2022-12-20T07:51:13;7.80;4.40
318;DHT22;146;53.448;10.228;2022-12-20T07:53:44;7.80;4.20
318;DHT22;146;53.448;10.228;2022-12-20T07:56:14;7.80;4.10
318;DHT22;146;53.448;10.228;2022-12-20T07:58:42;7.70;4.10
318;DHT22;146;53.448;10.228;2022-12-20T08:01:10;7.70;4.10
318;DHT22;146;53.448;10.228;2022-12-20T08:03:40;7.70;4.40
318;DHT22;146;53.448;10.228;2022-12-20T08:06:13;7.70;4.70
318;DHT22;146;53.448;10.228;2022-12-20T08:08:43;7.70;4.80
318;DHT22;146;53.448;10.228;2022-12-20T08:11:11;7.70;5.10
318;DHT22;146;53.448;10.228;2022-12-20T08:13:39;7.70;5.20
318;DHT22;146;53.448;10.228;2022-12-20T08:16:06;7.70;5.20
318;DHT22;146;53.448;10.228;2022-12-20T08:18:33;7.80;5.40
318;DHT22;146;53.448;10.228;2022-12-20T08:21:00;7.80;5.20
318;DHT22;146;53.448;10.228;2022-12-20T08:23:28;7.90;5.20
318;DHT22;146;53.448;10.228;2022-12-20T08:25:55;7.80;4.80
318;DHT22;146;53.448;10.228;2022-12-20T08:28:22;7.90;4.80
318;DHT22;146;53.448;10.228;2022-12-20T08:30:49;7.90;4.70
318;DHT22;146;53.448;10.228;2022-12-20T08:33:16;7.90;4.50
318;DHT22;146;53.448;10.228;2022-12-20T08:35:43;8.00;4.20
318;DHT22;146;53.448;10.228;2022-12-20T08:38:10;8.00;3.70
318;DHT22;146;53.448;10.228;2022-12-20T08:40:38;8.00;3.40
318;DHT22;146;53.448;10.228;2022-12-20T08:43:05;8.00;3.30
318;DHT22;146;53.448;10.228;2022-12-20T08:45:31;8.00;3.20
318;DHT22;146;53.448;10.228;2022-12-20T08:47:58;8.00;3.30
318;DHT22;146;53.448;10.228;2022-12-20T08:50:25;8.00;3.30
318;DHT22;146;53.448;10.228;2022-12-20T08:52:52;8.00;3.50
318;DHT22;146;53.448;10.228;2022-12-20T08:55:19;8.00;3.50
318;DHT22;146;53.448;10.228;2022-12-20T08:57:47;8.10;3.70
318;DHT22;146;53.448;10.228;2022-12-20T09:00:14;8.10;3.70
318;DHT22;146;53.448;10.228;2022-12-20T09:02:41;8.10;3.40
318;DHT22;146;53.448;10.228;2022-12-20T09:05:08;8.20;3.30
318;DHT22;146;53.448;10.228;2022-12-20T09:07:35;8.20;2.50
318;DHT22;146;53.448;10.228;2022-12-20T09:10:02;8.10;2.20
318;DHT22;146;53.448;10.228;2022-12-20T09:12:29;8.10;2.50
318;DHT22;146;53.448;10.228;2022-12-20T09:14:57;8.10;2.30
318;DHT22;146;53.448;10.228;2022-12-20T09:17:24;8.10;2.80
318;DHT22;146;53.448;10.228;2022-12-20T09:19:51;8.10;3.10
318;DHT22;146;53.448;10.228;2022-12-20T09:22:19;8.10;3.00
318;DHT22;146;53.448;10.228;2022-12-20T09:24:46;8.10;3.40
318;DHT22;146;53.448;10.228;2022-12-20T09:27:13;8.20;3.60
318;DHT22;146;53.448;10.228;2022-12-20T09:29:40;8.30;3.70
318;DHT22;146;53.448;10.228;2022-12-20T09:32:08;8.40;3.50
318;DHT22;146;53.448;10.228;2022-12-20T09:34:35;8.50;3.40
318;DHT22;146;53.448;10.228;2022-12-20T09:37:02;8.50;2.80
318;DHT22;146;53.448;10.228;2022-12-20T09:39:29;8.50;2.90
318;DHT22;146;53.448;10.228;2022-12-20T09:41:56;8.50;3.10
318;DHT22;146;53.448;10.228;2022-12-20T09:44:26;8.60;3.00
318;DHT22;146;53.448;10.228;2022-12-20T09:46:55;8.60;2.80
318;DHT22;146;53.448;10.228;2022-12-20T09:49:28;8.60;2.50
318;DHT22;146;53.448;10.228;2022-12-20T09:55:05;8.70;2.30
318;DHT22;146;53.448;10.228;2022-12-20T09:57:46;8.60;2.00
318;DHT22;146;53.448;10.228;2022-12-20T10:00:17;8.70;1.90
318;DHT22;146;53.448;10.228;2022-12-20T10:02:45;8.70;1.90
318;DHT22;146;53.448;10.228;2022-12-20T10:05:16;8.80;2.20
318;DHT22;146;53.448;10.228;2022-12-20T10:07:52;8.90;2.00
318;DHT22;146;53.448;10.228;2022-12-20T10:10:50;8.90;1.60
318;DHT22;146;53.448;10.228;2022-12-20T10:16:21;9.00;1.40
318;DHT22;146;53.448;10.228;2022-12-20T10:18:59;9.00;1.40
318;DHT22;146;53.448;10.228;2022-12-20T10:21:37;9.10;1.40
318;DHT22;146;53.448;10.228;2022-12-20T10:24:11;9.20;1.40
318;DHT22;146;53.448;10.228;2022-12-20T10:26:40;9.20;1.00
318;DHT22;146;53.448;10.228;2022-12-20T10:29:07;9.30;1.00
318;DHT22;146;53.448;10.228;2022-12-20T10:31:34;9.30;1.00
318;DHT22;146;53.448;10.228;2022-12-20T10:34:01;9.30;1.00
318;DHT22;146;53.448;10.228;2022-12-20T10:36:31;9.20;1.00
318;DHT22;146;53.448;10.228;2022-12-20T10:38:59;9.40;1.00
318;DHT22;146;53.448;10.228;2022-12-20T10:41:28;9.40;1.00
318;DHT22;146;53.448;10.228;2022-12-20T10:43:58;9.40;1.00
318;DHT22;146;53.448;10.228;2022-12-20T10:46:34;9.40;1.00
318;DHT22;146;53.448;10.228;2022-12-20T10:49:30;9.40;1.00
318;DHT22;146;53.448;10.228;2022-12-20T10:52:00;9.30;1.00
318;DHT22;146;53.448;10.228;2022-12-20T10:54:30;9.40;1.00
318;DHT22;146;53.448;10.228;2022-12-20T10:56:59;9.40;1.00
318;DHT22;146;53.448;10.228;2022-12-20T10:59:31;9.50;1.00
318;DHT22;146;53.448;10.228;2022-12-20T11:01:59;9.60;1.00
318;DHT22;146;53.448;10.228;2022-12-20T11:04:28;9.60;1.00
318;DHT22;146;53.448;10.228;2022-12-20T11:06:56;9.50;1.00
318;DHT22;146;53.448;10.228;2022-12-20T11:09:30;9.60;1.00
318;DHT22;146;53.448;10.228;2022-12-20T11:11:59;9.60;1.00
318;DHT22;146;53.448;10.228;2022-12-20T11:14:26;9.60;1.00
318;DHT22;146;53.448;10.228;2022-12-20T11:16:54;9.60;1.00
318;DHT22;146;53.448;10.228;2022-12-20T11:19:50;9.60;1.00
318;DHT22;146;53.448;10.228;2022-12-20T11:22:32;9.60;1.00
318;DHT22;146;53.448;10.228;2022-12-20T11:25:15;9.50;1.00
318;DHT22;146;53.448;10.228;2022-12-20T11:27:56;9.60;1.00
318;DHT22;146;53.448;10.228;2022-12-20T11:30:34;9.60;1.00
318;DHT22;146;53.448;10.228;2022-12-20T11:33:33;9.60;1.00
318;DHT22;146;53.448;10.228;2022-12-20T11:36:07;9.70;1.00
318;DHT22;146;53.448;10.228;2022-12-20T11:38:40;9.70;1.00
318;DHT22;146;53.448;10.228;2022-12-20T11:41:17;9.80;1.00
318;DHT22;146;53.448;10.228;2022-12-20T11:43:55;9.80;1.00
318;DHT22;146;53.448;10.228;2022-12-20T11:46:33;9.80;1.00
318;DHT22;146;53.448;10.228;2022-12-20T11:49:18;9.80;1.00
318;DHT22;146;53.448;10.228;2022-12-20T11:51:51;9.80;1.00
318;DHT22;146;53.448;10.228;2022-12-20T12:01:15;9.90;1.00
318;DHT22;146;53.448;10.228;2022-12-20T12:03:46;9.90;1.00
318;DHT22;146;53.448;10.228;2022-12-20T12:06:22;9.90;1.00
318;DHT22;146;53.448;10.228;2022-12-20T12:08:57;9.90;1.00
318;DHT22;146;53.448;10.228;2022-12-20T12:11:29;9.80;1.00
318;DHT22;146;53.448;10.228;2022-12-20T12:14:01;9.80;1.00
318;DHT22;146;53.448;10.228;2022-12-20T12:16:34;9.80;1.00
318;DHT22;146;53.448;10.228;2022-12-20T12:19:02;9.80;1.00
318;DHT22;146;53.448;10.228;2022-12-20T12:21:32;9.70;1.00
318;DHT22;146;53.448;10.228;2022-12-20T12:24:06;9.80;1.00
318;DHT22;146;53.448;10.228;2022-12-20T12:26:37;9.70;1.00
318;DHT22;146;53.448;10.228;2022-12-20T12:29:11;9.70;1.00
318;DHT22;146;53.448;10.228;2022-12-20T12:31:43;9.70;1.00
318;DHT22;146;53.448;10.228;2022-12-20T12:34:20;9.80;1.00
318;DHT22;146;53.448;10.228;2022-12-20T12:39:58;9.80;1.00
318;DHT22;146;53.448;10.228;2022-12-20T12:42:55;9.90;1.00
318;DHT22;146;53.448;10.228;2022-12-20T12:45:27;9.90;1.00
318;DHT22;146;53.448;10.228;2022-12-20T12:47:58;9.80;1.00
318;DHT22;146;53.448;10.228;2022-12-20T12:50:28;9.90;1.00
318;DHT22;146;53.448;10.228;2022-12-20T12:52:56;9.90;1.00
318;DHT22;146;53.448;10.228;2022-12-20T12:55:44;9.90;1.00
318;DHT22;146;53.448;10.228;2022-12-20T12:58:14;9.90;1.00
318;DHT22;146;53.448;10.228;2022-12-20T13:00:57;9.90;1.00
318;DHT22;146;53.448;10.228;2022-12-20T13:07:24;9.90;1.00
318;DHT22;146;53.448;10.228;2022-12-20T13:09:51;9.90;1.00
318;DHT22;146;53.448;10.228;2022-12-20T13:12:57;9.90;1.00
318;DHT22;146;53.448;10.228;2022-12-20T13:15:48;9.90;1.00
318;DHT22;146;53.448;10.228;2022-12-20T13:18:25;9.90;1.00
318;DHT22;146;53.448;10.228;2022-12-20T13:21:29;9.90;1.00
318;DHT22;146;53.448;10.228;2022-12-20T13:27:27;9.90;1.00
318;DHT22;146;53.448;10.228;2022-12-20T13:29:57;10.00;1.00
318;DHT22;146;53.448;10.228;2022-12-20T13:32:57;9.90;1.00
318;DHT22;146;53.448;10.228;2022-12-20T13:35:30;10.00;1.00
318;DHT22;146;53.448;10.228;2022-12-20T13:37:59;9.90;1.00
318;DHT22;146;53.448;10.228;2022-12-20T13:40:35;10.00;1.00
318;DHT22;146;53.448;10.228;2022-12-20T13:43:09;10.00;1.00
318;DHT22;146;53.448;10.228;2022-12-20T13:45:38;10.00;1.00
318;DHT22;146;53.448;10.228;2022-12-20T13:48:13;10.00;1.00
318;DHT22;146;53.448;10.228;2022-12-20T13:50:46;10.00;1.00
318;DHT22;146;53.448;10.228;2022-12-20T13:53:16;10.00;1.00
318;DHT22;146;53.448;10.228;2022-12-20T13:55:44;10.00;1.00
318;DHT22;146;53.448;10.228;2022-12-20T13:58:15;9.90;1.00
318;DHT22;146;53.448;10.228;2022-12-20T14:00:43;9.90;1.00
318;DHT22;146;53.448;10.228;2022-12-20T14:03:19;9.90;1.00
318;DHT22;146;53.448;10.228;2022-12-20T14:05:47;9.80;1.00
318;DHT22;146;53.448;10.228;2022-12-20T14:08:17;9.80;1.00
318;DHT22;146;53.448;10.228;2022-12-20T14:10:46;9.80;1.00
318;DHT22;146;53.448;10.228;2022-12-20T14:13:21;9.80;1.00
318;DHT22;146;53.448;10.228;2022-12-20T14:15:49;9.80;1.00
318;DHT22;146;53.448;10.228;2022-12-20T14:18:18;9.70;1.00
318;DHT22;146;53.448;10.228;2022-12-20T14:20:47;9.80;1.00
318;DHT22;146;53.448;10.228;2022-12-20T14:23:17;9.80;1.00
318;DHT22;146;53.448;10.228;2022-12-20T14:25:47;9.80;1.00
318;DHT22;146;53.448;10.228;2022-12-20T14:28:28;9.80;1.00
318;DHT22;146;53.448;10.228;2022-12-20T14:31:03;9.80;1.00
318;DHT22;146;53.448;10.228;2022-12-20T14:33:34;9.80;1.00
318;DHT22;146;53.448;10.228;2022-12-20T14:36:15;9.80;1.00
318;DHT22;146;53.448;10.228;2022-12-20T14:38:44;9.80;1.00
318;DHT22;146;53.448;10.228;2022-12-20T14:41:31;9.80;1.00
318;DHT22;146;53.448;10.228;2022-12-20T14:44:10;9.80;1.00
318;DHT22;146;53.448;10.228;2022-12-20T14:46:39;9.70;1.00
318;DHT22;146;53.448;10.228;2022-12-20T14:49:17;9.70;1.00
318;DHT22;146;53.448;10.228;2022-12-20T14:51:45;9.70;1.00
318;DHT22;146;53.448;10.228;2022-12-20T14:54:17;9.60;1.00
318;DHT22;146;53.448;10.228;2022-12-20T14:56:46;9.60;1.00
318;DHT22;146;53.448;10.228;2022-12-20T14:59:21;9.70;1.00
318;DHT22;146;53.448;10.228;2022-12-20T15:01:50;9.60;1.00
318;DHT22;146;53.448;10.228;2022-12-20T15:04:29;9.70;1.00
318;DHT22;146;53.448;10.228;2022-12-20T15:06:57;9.70;1.00
318;DHT22;146;53.448;10.228;2022-12-20T15:09:24;9.70;1.00
318;DHT22;146;53.448;10.228;2022-12-20T15:11:51;9.70;1.00
318;DHT22;146;53.448;10.228;2022-12-20T15:14:30;9.70;1.00
318;DHT22;146;53.448;10.228;2022-12-20T15:16:59;9.70;1.00
318;DHT22;146;53.448;10.228;2022-12-20T15:19:28;9.60;1.00
318;DHT22;146;53.448;10.228;2022-12-20T15:21:56;9.60;1.00
318;DHT22;146;53.448;10.228;2022-12-20T15:24:24;9.60;1.00
318;DHT22;146;53.448;10.228;2022-12-20T15:26:52;9.60;1.00
318;DHT22;146;53.448;10.228;2022-12-20T15:29:22;9.60;1.00
318;DHT22;146;53.448;10.228;2022-12-20T15:31:50;9.70;1.00
318;DHT22;146;53.448;10.228;2022-12-20T15:34:21;9.70;1.00
318;DHT22;146;53.448;10.228;2022-12-20T15:36:51;9.80;1.00
318;DHT22;146;53.448;10.228;2022-12-20T15:39:18;9.80;1.00
318;DHT22;146;53.448;10.228;2022-12-20T15:41:47;9.80;1.00
318;DHT22;146;53.448;10.228;2022-12-20T15:44:16;9.90;1.00
318;DHT22;146;53.448;10.228;2022-12-20T15:46:46;9.90;1.00
318;DHT22;146;53.448;10.228;2022-12-20T15:49:14;9.80;1.00
318;DHT22;146;53.448;10.228;2022-12-20T15:51:42;9.80;1.00
318;DHT22;146;53.448;10.228;2022-12-20T15:54:17;9.80;1.00
318;DHT22;146;53.448;10.228;2022-12-20T15:56:46;9.80;1.00
318;DHT22;146;53.448;10.228;2022-12-20T15:59:13;9.80;1.00
318;DHT22;146;53.448;10.228;2022-12-20T16:01:39;9.80;1.00
318;DHT22;146;53.448;10.228;2022-12-20T16:04:12;9.80;1.00
318;DHT22;146;53.448;10.228;2022-12-20T16:06:40;9.80;1.00
318;DHT22;146;53.448;10.228;2022-12-20T16:09:08;9.70;1.00
318;DHT22;146;53.448;10.228;2022-12-20T16:11:35;9.80;1.00
318;DHT22;146;53.448;10.228;2022-12-20T16:14:02;9.80;1.00
318;DHT22;146;53.448;10.228;2022-12-20T16:16:30;9.70;1.00
318;DHT22;146;53.448;10.228;2022-12-20T16:18:58;9.70;1.00
318;DHT22;146;53.448;10.228;2022-12-20T16:21:30;9.70;1.00
318;DHT22;146;53.448;10.228;2022-12-20T16:23:58;9.70;1.00
318;DHT22;146;53.448;10.228;2022-12-20T16:26:25;9.70;1.00
318;DHT22;146;53.448;10.228;2022-12-20T16:28:54;9.70;1.00
318;DHT22;146;53.448;10.228;2022-12-20T16:31:24;9.70;1.00
318;DHT22;146;53.448;10.228;2022-12-20T16:33:52;9.60;1.00
318;DHT22;146;53.448;10.228;2022-12-20T16:36:19;9.70;1.00
318;DHT22;146;53.448;10.228;2022-12-20T16:38:48;9.70;1.00
318;DHT22;146;53.448;10.228;2022-12-20T16:41:16;9.70;1.00
318;DHT22;146;53.448;10.228;2022-12-20T16:43:44;9.70;1.00
318;DHT22;146;53.448;10.228;2022-12-20T16:46:12;9.80;1.00
318;DHT22;146;53.448;10.228;2022-12-20T16:48:41;9.80;1.00
318;DHT22;146;53.448;10.228;2022-12-20T16:51:21;9.80;1.00
318;DHT22;146;53.448;10.228;2022-12-20T16:53:51;9.80;1.00
318;DHT22;146;53.448;10.228;2022-12-20T16:56:18;9.80;1.00
318;DHT22;146;53.448;10.228;2022-12-20T16:58:45;9.80;1.00
318;DHT22;146;53.448;10.228;2022-12-20T17:01:14;9.80;1.00
318;DHT22;146;53.448;10.228;2022-12-20T17:03:42;9.80;1.00
318;DHT22;146;53.448;10.228;2022-12-20T17:06:10;9.80;1.00
318;DHT22;146;53.448;10.228;2022-12-20T17:08:37;9.80;1.00
318;DHT22;146;53.448;10.228;2022-12-20T17:11:12;9.70;1.00
318;DHT22;146;53.448;10.228;2022-12-20T17:13:39;9.80;1.00
318;DHT22;146;53.448;10.228;2022-12-20T17:16:09;9.70;1.00
318;DHT22;146;53.448;10.228;2022-12-20T17:18:37;9.80;1.00
318;DHT22;146;53.448;10.228;2022-12-20T17:21:17;9.80;1.00
318;DHT22;146;53.448;10.228;2022-12-20T17:23:45;9.80;1.00
318;DHT22;146;53.448;10.228;2022-12-20T17:26:17;9.80;1.00
318;DHT22;146;53.448;10.228;2022-12-20T17:28:44;9.80;1.00
318;DHT22;146;53.448;10.228;2022-12-20T17:31:19;9.80;1.00
318;DHT22;146;53.448;10.228;2022-12-20T17:33:48;9.90;1.00
318;DHT22;146;53.448;10.228;2022-12-20T17:36:14;9.90;1.00